Предлагаем Вашему вниманию английскую версию страницы: AUTOTAF.ME UOII - aviation weather forecast Igarka

AUTOTAF UOII - авиапрогноз Игарка

Сегодня рассвет 02:35 UTC, восход солнца 03:51 UTC,
местный полдень 06:25 UTC, заход солнца 08:59 UTC,
наступление темноты 10:16 UTC.

Краткий прогноз UOII на 9 часов

AUTOTAF.ME UOII 252000Z 2521/2606 16004MPS 1000 BR NSC    
  FM260000 16005MPS CAVOK 
  FM260300 17006G11MPS 9000 HZ NSC 
  FM260600 16008G13MPS 7000 HZ NSC

Детальный прогноз UOII на 24 часа

AUTOTAF.ME UOII 252000Z 2521/2621 16004MPS 1000 BR SCT150 TXM38/2618Z TNM42/2521Z  
  FM260000 16005MPS 9999 FEW150 
  FM260300 17006G11MPS 9000 HZ BKN130 
  FM260600 16008G13MPS 7000 HZ BKN110 
  BECMG 2607/2609 9000    
  FM261800 15010G17MPS 9999 OVC090 
  BECMG 2619/2621 DRSN

Подробный табличный прогноз

Время (UTC) miniAUTOTAF на 3 ч WX FZLVL
M AGL
ICE TURB Т
(°С)
Тd
(°С)
f(%) QNH
(гПа)
WIND/T
18 17003MPS 1000 BR FEW160 BR SFC MOD FL40/FL50 -43 -47 63 1043 ...
21 16004MPS 1000 BR SCT150 BR SFC MOD FL40/FL50 -42 -47 61 1043 ...
26.01.2021
00 16005MPS 9999 FEW150 SFC -42 -47 63 1042 ...
03 17006G11MPS 9000 HZ BKN130 HZ SFC -42 -46 61 1041 ...
06 16008G13MPS 7000 HZ BKN110 HZ SFC -41 -46 61 1040 ...
09 16008G15MPS 9000 HZ OVC090 HZ SFC -41 -45 61 1039 ...
12 16009G16MPS 9000 HZ OVC090 HZ SFC -40 -45 61 1036 ...
15 16009G18MPS 9000 HZ OVC090 HZ SFC -39 -44 61 1034 ...
18 15010G17MPS 9999 OVC090 SFC -38 -43 62 1031 ...
21 15010G17MPS 9999 DRSN OVC190 DRSN SFC MOD SFC/FL30 -38 -42 63 1028 ...
27.01.2021
00 15009G15MPS 9999 DRSN SKC DRSN SFC MOD SFC/FL20 -37 -41 63 1026 ...
03 14007G13MPS 2000 SKC SFC MOD SFC/FL20 -36 -41 61 1024 ...
06 14006G11MPS 9999 SKC SFC MOD SFC/FL20 -35 -40 62 1023 ...
09 13004MPS 9999 SKC SFC MOD SFC/FL20 -35 -40 60 1023 ...
12 13003MPS 9999 SKC SFC -35 -40 61 1023 ...
15 10003MPS 9999 SKC SFC MOD SFC/FL20 -35 -40 60 1023 ...


Широта 67.43755°, долгота 86.62142°, высота 25 м абс.
Средняя высота рельефа местности 47 м абс.
Прогнозы обновляются четыре раза в сутки: в 02, 08, 14, 20 ч всемирного времени.


Выбрать прогноз по другой модели Игарка
Онлайн-сводка гроз по Игарка (для РФ и ближнего зарубежья)
Карта фактических гроз в окрестностях Игарка
Динамические прогностические карты (ventusky.com)
Прогностическая карта высоты нижней границы облаков по Игарка (windy.com)
Выбрать другой город

Прогноз предназначен для личного научно-познавательного использования частными лицами
и не предназначен для принятия важных решений и выполнения реальных полётов воздушных судов

При копировании или ином использовании любых материалов данного сайта ссылка на © meteocenter.asia обязательна.

0.68/1.2